sensor_id;sensor_type;location;lat;lon;timestamp;temperature;humidity
7461;DHT22;6757;52.258;12.840;2022-12-07T00:01:42;1.50;99.90
7461;DHT22;6757;52.258;12.840;2022-12-07T00:04:13;1.50;99.90
7461;DHT22;6757;52.258;12.840;2022-12-07T00:06:41;1.50;99.90
7461;DHT22;6757;52.258;12.840;2022-12-07T00:09:13;1.40;99.90
7461;DHT22;6757;52.258;12.840;2022-12-07T00:11:41;1.40;99.90
7461;DHT22;6757;52.258;12.840;2022-12-07T00:14:12;1.40;99.90
7461;DHT22;6757;52.258;12.840;2022-12-07T00:16:40;1.30;99.90
7461;DHT22;6757;52.258;12.840;2022-12-07T00:19:09;1.30;99.90
7461;DHT22;6757;52.258;12.840;2022-12-07T00:21:38;1.30;99.90
7461;DHT22;6757;52.258;12.840;2022-12-07T00:24:06;1.30;99.90
7461;DHT22;6757;52.258;12.840;2022-12-07T00:26:35;1.30;99.90
7461;DHT22;6757;52.258;12.840;2022-12-07T00:29:05;1.20;99.90
7461;DHT22;6757;52.258;12.840;2022-12-07T00:31:36;1.20;99.90
7461;DHT22;6757;52.258;12.840;2022-12-07T00:34:05;1.20;99.90
7461;DHT22;6757;52.258;12.840;2022-12-07T00:36:32;1.10;99.90
7461;DHT22;6757;52.258;12.840;2022-12-07T00:38:59;1.10;99.90
7461;DHT22;6757;52.258;12.840;2022-12-07T00:41:28;1.10;99.90
7461;DHT22;6757;52.258;12.840;2022-12-07T00:43:57;1.10;99.90
7461;DHT22;6757;52.258;12.840;2022-12-07T00:46:24;1.00;99.90
7461;DHT22;6757;52.258;12.840;2022-12-07T00:48:52;1.00;99.90
7461;DHT22;6757;52.258;12.840;2022-12-07T00:51:22;0.90;99.90
7461;DHT22;6757;52.258;12.840;2022-12-07T00:53:50;0.90;99.90
7461;DHT22;6757;52.258;12.840;2022-12-07T00:56:18;0.90;99.90
7461;DHT22;6757;52.258;12.840;2022-12-07T00:58:50;0.90;99.90
7461;DHT22;6757;52.258;12.840;2022-12-07T01:01:20;0.90;99.90
7461;DHT22;6757;52.258;12.840;2022-12-07T01:03:47;0.80;99.90
7461;DHT22;6757;52.258;12.840;2022-12-07T01:06:14;0.80;99.90
7461;DHT22;6757;52.258;12.840;2022-12-07T01:08:42;0.80;99.90
7461;DHT22;6757;52.258;12.840;2022-12-07T01:11:12;0.80;99.90
7461;DHT22;6757;52.258;12.840;2022-12-07T01:13:41;0.80;99.90
7461;DHT22;6757;52.258;12.840;2022-12-07T01:16:10;0.70;99.90
7461;DHT22;6757;52.258;12.840;2022-12-07T01:18:40;0.70;99.90
7461;DHT22;6757;52.258;12.840;2022-12-07T01:21:09;0.70;99.90
7461;DHT22;6757;52.258;12.840;2022-12-07T01:23:38;0.70;99.90
7461;DHT22;6757;52.258;12.840;2022-12-07T01:26:07;0.70;99.90
7461;DHT22;6757;52.258;12.840;2022-12-07T01:28:36;0.60;99.90
7461;DHT22;6757;52.258;12.840;2022-12-07T01:31:04;0.60;99.90
7461;DHT22;6757;52.258;12.840;2022-12-07T01:33:34;0.60;99.90
7461;DHT22;6757;52.258;12.840;2022-12-07T01:36:04;0.50;99.90
7461;DHT22;6757;52.258;12.840;2022-12-07T01:38:33;0.50;99.90
7461;DHT22;6757;52.258;12.840;2022-12-07T01:41:01;0.50;99.90
7461;DHT22;6757;52.258;12.840;2022-12-07T01:43:30;0.50;99.90
7461;DHT22;6757;52.258;12.840;2022-12-07T01:45:58;0.50;99.90
7461;DHT22;6757;52.258;12.840;2022-12-07T01:48:28;0.40;99.90
7461;DHT22;6757;52.258;12.840;2022-12-07T01:51:01;0.40;99.90
7461;DHT22;6757;52.258;12.840;2022-12-07T01:53:35;0.40;99.90
7461;DHT22;6757;52.258;12.840;2022-12-07T01:56:04;0.40;99.90
7461;DHT22;6757;52.258;12.840;2022-12-07T01:58:32;0.50;99.90
7461;DHT22;6757;52.258;12.840;2022-12-07T02:01:00;0.40;99.90
7461;DHT22;6757;52.258;12.840;2022-12-07T02:03:31;0.40;99.90
7461;DHT22;6757;52.258;12.840;2022-12-07T02:06:00;0.40;99.90
7461;DHT22;6757;52.258;12.840;2022-12-07T02:08:29;0.40;99.90
7461;DHT22;6757;52.258;12.840;2022-12-07T02:10:56;0.40;99.90
7461;DHT22;6757;52.258;12.840;2022-12-07T02:13:25;0.40;99.90
7461;DHT22;6757;52.258;12.840;2022-12-07T02:16:09;0.40;99.90
7461;DHT22;6757;52.258;12.840;2022-12-07T02:18:50;0.30;99.90
7461;DHT22;6757;52.258;12.840;2022-12-07T02:21:32;0.30;99.90
7461;DHT22;6757;52.258;12.840;2022-12-07T02:24:28;0.30;99.90
7461;DHT22;6757;52.258;12.840;2022-12-07T02:27:36;0.30;99.90
7461;DHT22;6757;52.258;12.840;2022-12-07T02:30:08;0.30;99.90
7461;DHT22;6757;52.258;12.840;2022-12-07T02:32:44;0.30;99.90
7461;DHT22;6757;52.258;12.840;2022-12-07T02:35:18;0.30;99.90
7461;DHT22;6757;52.258;12.840;2022-12-07T02:37:52;0.30;99.90
7461;DHT22;6757;52.258;12.840;2022-12-07T02:40:28;0.30;99.90
7461;DHT22;6757;52.258;12.840;2022-12-07T02:43:01;0.30;99.90
7461;DHT22;6757;52.258;12.840;2022-12-07T02:45:34;0.30;99.90
7461;DHT22;6757;52.258;12.840;2022-12-07T02:48:04;0.30;99.90
7461;DHT22;6757;52.258;12.840;2022-12-07T02:50:32;0.30;99.90
7461;DHT22;6757;52.258;12.840;2022-12-07T02:52:59;0.30;99.90
7461;DHT22;6757;52.258;12.840;2022-12-07T02:55:29;0.30;99.90
7461;DHT22;6757;52.258;12.840;2022-12-07T02:58:18;0.30;99.90
7461;DHT22;6757;52.258;12.840;2022-12-07T03:01:04;0.30;99.90
7461;DHT22;6757;52.258;12.840;2022-12-07T03:03:39;0.30;99.90
7461;DHT22;6757;52.258;12.840;2022-12-07T03:06:15;0.40;99.90
7461;DHT22;6757;52.258;12.840;2022-12-07T03:08:51;0.40;99.90
7461;DHT22;6757;52.258;12.840;2022-12-07T03:11:29;0.40;99.90
7461;DHT22;6757;52.258;12.840;2022-12-07T03:14:02;0.40;99.90
7461;DHT22;6757;52.258;12.840;2022-12-07T03:16:41;0.50;99.90
7461;DHT22;6757;52.258;12.840;2022-12-07T03:19:13;0.50;99.90
7461;DHT22;6757;52.258;12.840;2022-12-07T03:21:44;0.50;99.90
7461;DHT22;6757;52.258;12.840;2022-12-07T03:24:15;0.50;99.90
7461;DHT22;6757;52.258;12.840;2022-12-07T03:26:48;0.50;99.90
7461;DHT22;6757;52.258;12.840;2022-12-07T03:29:19;0.60;99.90
7461;DHT22;6757;52.258;12.840;2022-12-07T03:31:58;0.60;99.90
7461;DHT22;6757;52.258;12.840;2022-12-07T03:34:31;0.60;99.90
7461;DHT22;6757;52.258;12.840;2022-12-07T03:37:03;0.60;99.90
7461;DHT22;6757;52.258;12.840;2022-12-07T03:39:36;0.60;99.90
7461;DHT22;6757;52.258;12.840;2022-12-07T03:42:07;0.70;99.90
7461;DHT22;6757;52.258;12.840;2022-12-07T03:44:36;0.70;99.90
7461;DHT22;6757;52.258;12.840;2022-12-07T03:47:07;0.70;99.90
7461;DHT22;6757;52.258;12.840;2022-12-07T03:49:43;0.70;99.90
7461;DHT22;6757;52.258;12.840;2022-12-07T03:52:17;0.80;99.90
7461;DHT22;6757;52.258;12.840;2022-12-07T03:54:53;0.80;99.90
7461;DHT22;6757;52.258;12.840;2022-12-07T03:57:21;0.90;99.90
7461;DHT22;6757;52.258;12.840;2022-12-07T03:59:50;0.90;99.90
7461;DHT22;6757;52.258;12.840;2022-12-07T04:02:19;0.90;99.90
7461;DHT22;6757;52.258;12.840;2022-12-07T04:04:47;0.90;99.90
7461;DHT22;6757;52.258;12.840;2022-12-07T04:07:13;1.00;99.90
7461;DHT22;6757;52.258;12.840;2022-12-07T04:09:40;1.00;99.90
7461;DHT22;6757;52.258;12.840;2022-12-07T04:12:07;1.00;99.90
7461;DHT22;6757;52.258;12.840;2022-12-07T04:14:34;1.10;99.90
7461;DHT22;6757;52.258;12.840;2022-12-07T04:17:01;1.10;99.90
7461;DHT22;6757;52.258;12.840;2022-12-07T04:19:31;1.10;99.90
7461;DHT22;6757;52.258;12.840;2022-12-07T04:22:00;1.10;99.90
7461;DHT22;6757;52.258;12.840;2022-12-07T04:24:28;1.10;99.90
7461;DHT22;6757;52.258;12.840;2022-12-07T04:26:55;1.10;99.90
7461;DHT22;6757;52.258;12.840;2022-12-07T04:29:23;1.10;99.90
7461;DHT22;6757;52.258;12.840;2022-12-07T04:31:50;1.10;99.90
7461;DHT22;6757;52.258;12.840;2022-12-07T04:34:18;1.10;99.90
7461;DHT22;6757;52.258;12.840;2022-12-07T04:36:47;1.10;99.90
7461;DHT22;6757;52.258;12.840;2022-12-07T04:39:19;1.10;99.90
7461;DHT22;6757;52.258;12.840;2022-12-07T04:41:47;1.10;99.90
7461;DHT22;6757;52.258;12.840;2022-12-07T04:44:15;1.20;99.90
7461;DHT22;6757;52.258;12.840;2022-12-07T04:46:43;1.20;99.90
7461;DHT22;6757;52.258;12.840;2022-12-07T04:49:11;1.20;99.90
7461;DHT22;6757;52.258;12.840;2022-12-07T04:51:39;1.20;99.90
7461;DHT22;6757;52.258;12.840;2022-12-07T04:54:07;1.20;99.90
7461;DHT22;6757;52.258;12.840;2022-12-07T04:56:35;1.30;99.90
7461;DHT22;6757;52.258;12.840;2022-12-07T04:59:03;1.30;99.90
7461;DHT22;6757;52.258;12.840;2022-12-07T05:01:31;1.30;99.90
7461;DHT22;6757;52.258;12.840;2022-12-07T05:03:59;1.40;99.90
7461;DHT22;6757;52.258;12.840;2022-12-07T05:06:26;1.40;99.90
7461;DHT22;6757;52.258;12.840;2022-12-07T05:08:53;1.40;99.90
7461;DHT22;6757;52.258;12.840;2022-12-07T05:11:23;1.50;99.90
7461;DHT22;6757;52.258;12.840;2022-12-07T05:14:08;1.50;99.90
7461;DHT22;6757;52.258;12.840;2022-12-07T05:16:37;1.50;99.90
7461;DHT22;6757;52.258;12.840;2022-12-07T05:19:05;1.50;99.90
7461;DHT22;6757;52.258;12.840;2022-12-07T05:21:32;1.60;99.90
7461;DHT22;6757;52.258;12.840;2022-12-07T05:23:59;1.60;99.90
7461;DHT22;6757;52.258;12.840;2022-12-07T05:26:28;1.70;99.90
7461;DHT22;6757;52.258;12.840;2022-12-07T05:28:56;1.70;99.90
7461;DHT22;6757;52.258;12.840;2022-12-07T05:31:25;1.70;99.90
7461;DHT22;6757;52.258;12.840;2022-12-07T05:33:53;1.70;99.90
7461;DHT22;6757;52.258;12.840;2022-12-07T05:36:20;1.80;99.90
7461;DHT22;6757;52.258;12.840;2022-12-07T05:38:47;1.80;99.90
7461;DHT22;6757;52.258;12.840;2022-12-07T05:41:16;1.80;99.90
7461;DHT22;6757;52.258;12.840;2022-12-07T05:44:02;1.80;99.90
7461;DHT22;6757;52.258;12.840;2022-12-07T05:46:30;1.80;99.90
7461;DHT22;6757;52.258;12.840;2022-12-07T05:48:57;1.80;99.90
7461;DHT22;6757;52.258;12.840;2022-12-07T05:51:23;1.80;99.90
7461;DHT22;6757;52.258;12.840;2022-12-07T05:53:50;1.90;99.90
7461;DHT22;6757;52.258;12.840;2022-12-07T05:56:17;1.90;99.90
7461;DHT22;6757;52.258;12.840;2022-12-07T05:58:44;1.90;99.90
7461;DHT22;6757;52.258;12.840;2022-12-07T06:01:30;1.90;99.90
7461;DHT22;6757;52.258;12.840;2022-12-07T06:03:57;1.90;99.90
7461;DHT22;6757;52.258;12.840;2022-12-07T06:06:24;1.90;99.90
7461;DHT22;6757;52.258;12.840;2022-12-07T06:08:51;2.00;99.90
7461;DHT22;6757;52.258;12.840;2022-12-07T06:11:18;2.00;99.90
7461;DHT22;6757;52.258;12.840;2022-12-07T06:14:03;2.00;99.90
7461;DHT22;6757;52.258;12.840;2022-12-07T06:16:31;2.00;99.90
7461;DHT22;6757;52.258;12.840;2022-12-07T06:18:58;2.00;99.90
7461;DHT22;6757;52.258;12.840;2022-12-07T06:21:25;2.00;99.90
7461;DHT22;6757;52.258;12.840;2022-12-07T06:23:52;2.00;99.90
7461;DHT22;6757;52.258;12.840;2022-12-07T06:26:19;2.10;99.90
7461;DHT22;6757;52.258;12.840;2022-12-07T06:28:46;2.10;99.90
7461;DHT22;6757;52.258;12.840;2022-12-07T06:31:13;2.10;99.90
7461;DHT22;6757;52.258;12.840;2022-12-07T06:33:42;2.10;99.90
7461;DHT22;6757;52.258;12.840;2022-12-07T06:36:09;2.10;99.90
7461;DHT22;6757;52.258;12.840;2022-12-07T06:38:36;2.20;99.90
7461;DHT22;6757;52.258;12.840;2022-12-07T06:41:03;2.20;99.90
7461;DHT22;6757;52.258;12.840;2022-12-07T06:43:31;2.20;99.90
7461;DHT22;6757;52.258;12.840;2022-12-07T06:45:58;2.20;99.90
7461;DHT22;6757;52.258;12.840;2022-12-07T06:48:24;2.30;99.90
7461;DHT22;6757;52.258;12.840;2022-12-07T06:50:53;2.30;99.90
7461;DHT22;6757;52.258;12.840;2022-12-07T06:53:20;2.30;99.90
7461;DHT22;6757;52.258;12.840;2022-12-07T06:55:47;2.40;99.90
7461;DHT22;6757;52.258;12.840;2022-12-07T06:58:14;2.40;99.90
7461;DHT22;6757;52.258;12.840;2022-12-07T07:00:41;2.40;99.90
7461;DHT22;6757;52.258;12.840;2022-12-07T07:03:08;2.40;99.90
7461;DHT22;6757;52.258;12.840;2022-12-07T07:05:35;2.40;99.90
7461;DHT22;6757;52.258;12.840;2022-12-07T07:08:03;2.50;99.90
7461;DHT22;6757;52.258;12.840;2022-12-07T07:10:30;2.50;99.90
7461;DHT22;6757;52.258;12.840;2022-12-07T07:12:57;2.50;99.90
7461;DHT22;6757;52.258;12.840;2022-12-07T07:15:24;2.50;99.90
7461;DHT22;6757;52.258;12.840;2022-12-07T07:17:51;2.50;99.90
7461;DHT22;6757;52.258;12.840;2022-12-07T07:20:18;2.50;99.90
7461;DHT22;6757;52.258;12.840;2022-12-07T07:22:45;2.50;99.90
7461;DHT22;6757;52.258;12.840;2022-12-07T07:25:14;2.50;99.90
7461;DHT22;6757;52.258;12.840;2022-12-07T07:27:41;2.70;99.90
7461;DHT22;6757;52.258;12.840;2022-12-07T07:30:09;2.50;99.90
7461;DHT22;6757;52.258;12.840;2022-12-07T07:32:36;2.50;99.90
7461;DHT22;6757;52.258;12.840;2022-12-07T07:35:04;2.50;99.90
7461;DHT22;6757;52.258;12.840;2022-12-07T07:37:31;2.50;99.90
7461;DHT22;6757;52.258;12.840;2022-12-07T07:39:58;2.50;99.90
7461;DHT22;6757;52.258;12.840;2022-12-07T07:42:26;2.50;99.90
7461;DHT22;6757;52.258;12.840;2022-12-07T07:44:53;2.60;99.90
7461;DHT22;6757;52.258;12.840;2022-12-07T07:47:20;2.60;99.90
7461;DHT22;6757;52.258;12.840;2022-12-07T07:49:47;2.60;99.90
7461;DHT22;6757;52.258;12.840;2022-12-07T07:52:14;2.60;99.90
7461;DHT22;6757;52.258;12.840;2022-12-07T07:54:41;2.70;99.90
7461;DHT22;6757;52.258;12.840;2022-12-07T07:57:08;2.70;99.90
7461;DHT22;6757;52.258;12.840;2022-12-07T07:59:36;2.70;99.90
7461;DHT22;6757;52.258;12.840;2022-12-07T08:02:03;2.70;99.90
7461;DHT22;6757;52.258;12.840;2022-12-07T08:04:30;2.70;99.90
7461;DHT22;6757;52.258;12.840;2022-12-07T08:06:57;2.70;99.90
7461;DHT22;6757;52.258;12.840;2022-12-07T08:09:24;2.80;99.90
7461;DHT22;6757;52.258;12.840;2022-12-07T08:11:51;2.80;99.90
7461;DHT22;6757;52.258;12.840;2022-12-07T08:14:18;2.80;99.90
7461;DHT22;6757;52.258;12.840;2022-12-07T08:16:46;2.80;99.90
7461;DHT22;6757;52.258;12.840;2022-12-07T08:19:13;2.80;99.90
7461;DHT22;6757;52.258;12.840;2022-12-07T08:21:40;2.80;99.90
7461;DHT22;6757;52.258;12.840;2022-12-07T08:24:07;2.80;99.90
7461;DHT22;6757;52.258;12.840;2022-12-07T08:26:34;2.80;99.90
7461;DHT22;6757;52.258;12.840;2022-12-07T08:29:01;2.80;99.90
7461;DHT22;6757;52.258;12.840;2022-12-07T08:31:28;2.90;99.90
7461;DHT22;6757;52.258;12.840;2022-12-07T08:33:56;2.90;99.90
7461;DHT22;6757;52.258;12.840;2022-12-07T08:36:23;2.90;99.90
7461;DHT22;6757;52.258;12.840;2022-12-07T08:38:50;2.90;99.90
7461;DHT22;6757;52.258;12.840;2022-12-07T08:41:18;2.80;99.90
7461;DHT22;6757;52.258;12.840;2022-12-07T08:43:45;2.90;99.90
7461;DHT22;6757;52.258;12.840;2022-12-07T08:46:16;2.90;99.90
7461;DHT22;6757;52.258;12.840;2022-12-07T08:48:48;2.90;99.90
7461;DHT22;6757;52.258;12.840;2022-12-07T08:51:20;2.90;99.90
7461;DHT22;6757;52.258;12.840;2022-12-07T08:53:48;2.90;99.90
7461;DHT22;6757;52.258;12.840;2022-12-07T08:56:16;2.90;99.90
7461;DHT22;6757;52.258;12.840;2022-12-07T08:58:43;2.90;99.90
7461;DHT22;6757;52.258;12.840;2022-12-07T09:01:10;2.90;99.90
7461;DHT22;6757;52.258;12.840;2022-12-07T09:03:37;2.90;99.90
7461;DHT22;6757;52.258;12.840;2022-12-07T09:06:04;2.90;99.90
7461;DHT22;6757;52.258;12.840;2022-12-07T09:08:36;2.90;99.90
7461;DHT22;6757;52.258;12.840;2022-12-07T09:11:05;2.90;99.90
7461;DHT22;6757;52.258;12.840;2022-12-07T09:13:31;2.90;99.90
7461;DHT22;6757;52.258;12.840;2022-12-07T09:15:58;2.90;99.90
7461;DHT22;6757;52.258;12.840;2022-12-07T09:18:26;2.80;99.90
7461;DHT22;6757;52.258;12.840;2022-12-07T09:20:53;2.80;99.90
7461;DHT22;6757;52.258;12.840;2022-12-07T09:23:20;2.80;99.90
7461;DHT22;6757;52.258;12.840;2022-12-07T09:25:48;2.80;99.90
7461;DHT22;6757;52.258;12.840;2022-12-07T09:28:15;2.80;99.90
7461;DHT22;6757;52.258;12.840;2022-12-07T09:30:46;2.80;99.90
7461;DHT22;6757;52.258;12.840;2022-12-07T09:33:13;2.80;99.90
7461;DHT22;6757;52.258;12.840;2022-12-07T09:35:44;2.80;99.90
7461;DHT22;6757;52.258;12.840;2022-12-07T09:38:12;2.80;99.90
7461;DHT22;6757;52.258;12.840;2022-12-07T09:40:39;2.80;99.90
7461;DHT22;6757;52.258;12.840;2022-12-07T09:43:13;2.80;99.90
7461;DHT22;6757;52.258;12.840;2022-12-07T09:45:41;2.80;99.90
7461;DHT22;6757;52.258;12.840;2022-12-07T09:48:16;2.80;99.90
7461;DHT22;6757;52.258;12.840;2022-12-07T09:50:45;2.80;99.90
7461;DHT22;6757;52.258;12.840;2022-12-07T09:53:19;2.90;99.90
7461;DHT22;6757;52.258;12.840;2022-12-07T09:55:50;2.90;99.90
7461;DHT22;6757;52.258;12.840;2022-12-07T09:58:21;3.00;99.90
7461;DHT22;6757;52.258;12.840;2022-12-07T10:00:50;3.00;99.90
7461;DHT22;6757;52.258;12.840;2022-12-07T10:03:20;3.00;99.90
7461;DHT22;6757;52.258;12.840;2022-12-07T10:05:49;3.10;99.90
7461;DHT22;6757;52.258;12.840;2022-12-07T10:08:17;3.10;99.90
7461;DHT22;6757;52.258;12.840;2022-12-07T10:10:45;3.10;99.90
7461;DHT22;6757;52.258;12.840;2022-12-07T10:13:20;3.20;99.90
7461;DHT22;6757;52.258;12.840;2022-12-07T10:15:51;3.20;99.90
7461;DHT22;6757;52.258;12.840;2022-12-07T10:18:25;3.20;99.90
7461;DHT22;6757;52.258;12.840;2022-12-07T10:21:15;3.20;99.90
7461;DHT22;6757;52.258;12.840;2022-12-07T10:24:00;3.30;99.90
7461;DHT22;6757;52.258;12.840;2022-12-07T10:26:32;3.30;99.90
7461;DHT22;6757;52.258;12.840;2022-12-07T10:29:04;3.30;99.90
7461;DHT22;6757;52.258;12.840;2022-12-07T10:31:41;3.30;99.90
7461;DHT22;6757;52.258;12.840;2022-12-07T10:34:20;3.40;99.90
7461;DHT22;6757;52.258;12.840;2022-12-07T10:36:50;3.40;99.90
7461;DHT22;6757;52.258;12.840;2022-12-07T10:39:19;3.40;99.90
7461;DHT22;6757;52.258;12.840;2022-12-07T10:41:54;3.40;99.90
7461;DHT22;6757;52.258;12.840;2022-12-07T10:44:25;3.50;99.90
7461;DHT22;6757;52.258;12.840;2022-12-07T10:47:17;3.50;99.90
7461;DHT22;6757;52.258;12.840;2022-12-07T10:49:56;3.50;99.90
7461;DHT22;6757;52.258;12.840;2022-12-07T10:52:52;3.50;99.90
7461;DHT22;6757;52.258;12.840;2022-12-07T10:55:31;3.60;99.90
7461;DHT22;6757;52.258;12.840;2022-12-07T10:58:17;3.60;99.90
7461;DHT22;6757;52.258;12.840;2022-12-07T11:01:02;3.60;99.90
7461;DHT22;6757;52.258;12.840;2022-12-07T11:03:43;3.60;99.90
7461;DHT22;6757;52.258;12.840;2022-12-07T11:06:23;3.70;99.90
7461;DHT22;6757;52.258;12.840;2022-12-07T11:09:03;3.70;99.90
7461;DHT22;6757;52.258;12.840;2022-12-07T11:11:48;3.70;99.90
7461;DHT22;6757;52.258;12.840;2022-12-07T11:14:25;3.70;99.90
7461;DHT22;6757;52.258;12.840;2022-12-07T11:17:00;3.70;99.90
7461;DHT22;6757;52.258;12.840;2022-12-07T11:19:54;3.80;99.90
7461;DHT22;6757;52.258;12.840;2022-12-07T11:22:33;3.80;99.90
7461;DHT22;6757;52.258;12.840;2022-12-07T11:25:17;3.80;99.90
7461;DHT22;6757;52.258;12.840;2022-12-07T11:27:51;3.90;99.90
7461;DHT22;6757;52.258;12.840;2022-12-07T11:30:32;3.90;99.90
7461;DHT22;6757;52.258;12.840;2022-12-07T11:33:10;3.90;99.90
7461;DHT22;6757;52.258;12.840;2022-12-07T11:35:53;3.90;99.90
7461;DHT22;6757;52.258;12.840;2022-12-07T11:38:33;4.00;99.90
7461;DHT22;6757;52.258;12.840;2022-12-07T11:41:06;4.00;99.90
7461;DHT22;6757;52.258;12.840;2022-12-07T11:43:53;4.00;99.90
7461;DHT22;6757;52.258;12.840;2022-12-07T11:46:25;4.00;99.90
7461;DHT22;6757;52.258;12.840;2022-12-07T11:49:01;4.10;99.90
7461;DHT22;6757;52.258;12.840;2022-12-07T11:51:33;4.10;99.90
7461;DHT22;6757;52.258;12.840;2022-12-07T11:54:05;4.20;99.90
7461;DHT22;6757;52.258;12.840;2022-12-07T11:56:38;4.30;99.90
7461;DHT22;6757;52.258;12.840;2022-12-07T11:59:10;4.40;99.90
7461;DHT22;6757;52.258;12.840;2022-12-07T12:01:47;4.40;99.90
7461;DHT22;6757;52.258;12.840;2022-12-07T12:04:37;4.50;99.90
7461;DHT22;6757;52.258;12.840;2022-12-07T12:07:14;4.50;99.90
7461;DHT22;6757;52.258;12.840;2022-12-07T12:09:49;4.50;99.90
7461;DHT22;6757;52.258;12.840;2022-12-07T12:15:57;4.50;99.90
7461;DHT22;6757;52.258;12.840;2022-12-07T12:18:40;4.50;99.90
7461;DHT22;6757;52.258;12.840;2022-12-07T12:21:23;4.50;99.90
7461;DHT22;6757;52.258;12.840;2022-12-07T12:23:57;4.40;99.90
7461;DHT22;6757;52.258;12.840;2022-12-07T12:26:25;4.40;99.90
7461;DHT22;6757;52.258;12.840;2022-12-07T12:28:56;4.40;99.90
7461;DHT22;6757;52.258;12.840;2022-12-07T12:31:37;4.40;99.90
7461;DHT22;6757;52.258;12.840;2022-12-07T12:34:30;4.40;99.90
7461;DHT22;6757;52.258;12.840;2022-12-07T12:37:01;4.40;99.90
7461;DHT22;6757;52.258;12.840;2022-12-07T12:39:28;4.30;99.90
7461;DHT22;6757;52.258;12.840;2022-12-07T12:41:59;4.30;99.90
7461;DHT22;6757;52.258;12.840;2022-12-07T12:47:56;4.30;99.90
7461;DHT22;6757;52.258;12.840;2022-12-07T12:50:30;4.30;99.90
7461;DHT22;6757;52.258;12.840;2022-12-07T12:53:20;4.30;99.90
7461;DHT22;6757;52.258;12.840;2022-12-07T12:59:24;4.30;99.90
7461;DHT22;6757;52.258;12.840;2022-12-07T13:01:55;4.30;99.90
7461;DHT22;6757;52.258;12.840;2022-12-07T13:04:27;4.30;99.90
7461;DHT22;6757;52.258;12.840;2022-12-07T13:06:56;4.20;99.90
7461;DHT22;6757;52.258;12.840;2022-12-07T13:09:27;4.20;99.90
7461;DHT22;6757;52.258;12.840;2022-12-07T13:11:56;4.20;99.90
7461;DHT22;6757;52.258;12.840;2022-12-07T13:17:56;4.10;99.90
7461;DHT22;6757;52.258;12.840;2022-12-07T13:20:56;4.10;99.90
7461;DHT22;6757;52.258;12.840;2022-12-07T13:23:29;4.10;99.90
7461;DHT22;6757;52.258;12.840;2022-12-07T13:26:18;4.10;99.90
7461;DHT22;6757;52.258;12.840;2022-12-07T13:28:48;4.10;99.90
7461;DHT22;6757;52.258;12.840;2022-12-07T13:31:24;4.10;99.90
7461;DHT22;6757;52.258;12.840;2022-12-07T13:33:57;4.00;99.90
7461;DHT22;6757;52.258;12.840;2022-12-07T13:36:26;4.00;99.90
7461;DHT22;6757;52.258;12.840;2022-12-07T13:38:55;4.00;99.90
7461;DHT22;6757;52.258;12.840;2022-12-07T13:41:25;4.00;99.90
7461;DHT22;6757;52.258;12.840;2022-12-07T13:44:00;4.00;99.90
7461;DHT22;6757;52.258;12.840;2022-12-07T13:46:40;4.00;99.90
7461;DHT22;6757;52.258;12.840;2022-12-07T13:49:22;4.00;99.90
7461;DHT22;6757;52.258;12.840;2022-12-07T13:51:50;3.90;99.90
7461;DHT22;6757;52.258;12.840;2022-12-07T13:54:18;3.90;99.90
7461;DHT22;6757;52.258;12.840;2022-12-07T13:56:50;3.90;99.90
7461;DHT22;6757;52.258;12.840;2022-12-07T13:59:19;3.90;99.90
7461;DHT22;6757;52.258;12.840;2022-12-07T14:01:50;3.90;99.90
7461;DHT22;6757;52.258;12.840;2022-12-07T14:04:19;3.90;99.90
7461;DHT22;6757;52.258;12.840;2022-12-07T14:06:56;3.80;99.90
7461;DHT22;6757;52.258;12.840;2022-12-07T14:09:25;3.80;99.90
7461;DHT22;6757;52.258;12.840;2022-12-07T14:11:55;3.80;99.90
7461;DHT22;6757;52.258;12.840;2022-12-07T14:14:25;3.80;99.90
7461;DHT22;6757;52.258;12.840;2022-12-07T14:17:08;3.80;99.90
7461;DHT22;6757;52.258;12.840;2022-12-07T14:19:43;3.80;99.90
7461;DHT22;6757;52.258;12.840;2022-12-07T14:22:20;3.70;99.90
7461;DHT22;6757;52.258;12.840;2022-12-07T14:24:50;3.70;99.90
7461;DHT22;6757;52.258;12.840;2022-12-07T14:27:20;3.70;99.90
7461;DHT22;6757;52.258;12.840;2022-12-07T14:29:48;3.60;99.90
7461;DHT22;6757;52.258;12.840;2022-12-07T14:32:20;3.60;99.90
7461;DHT22;6757;52.258;12.840;2022-12-07T14:34:58;3.60;99.90
7461;DHT22;6757;52.258;12.840;2022-12-07T14:37:28;3.50;99.90
7461;DHT22;6757;52.258;12.840;2022-12-07T14:39:56;3.50;99.90
7461;DHT22;6757;52.258;12.840;2022-12-07T14:42:27;3.40;99.90
7461;DHT22;6757;52.258;12.840;2022-12-07T14:44:56;3.40;99.90
7461;DHT22;6757;52.258;12.840;2022-12-07T14:47:24;3.30;99.90
7461;DHT22;6757;52.258;12.840;2022-12-07T14:49:52;3.30;99.90
7461;DHT22;6757;52.258;12.840;2022-12-07T14:52:21;3.30;99.90
7461;DHT22;6757;52.258;12.840;2022-12-07T14:54:50;3.20;99.90
7461;DHT22;6757;52.258;12.840;2022-12-07T14:57:17;3.10;99.90
7461;DHT22;6757;52.258;12.840;2022-12-07T14:59:45;3.10;99.90
7461;DHT22;6757;52.258;12.840;2022-12-07T15:02:13;3.00;99.90
7461;DHT22;6757;52.258;12.840;2022-12-07T15:04:41;3.00;99.90
7461;DHT22;6757;52.258;12.840;2022-12-07T15:07:13;3.00;99.90
7461;DHT22;6757;52.258;12.840;2022-12-07T15:09:42;2.90;99.90
7461;DHT22;6757;52.258;12.840;2022-12-07T15:12:09;2.90;99.90
7461;DHT22;6757;52.258;12.840;2022-12-07T15:14:36;2.80;99.90
7461;DHT22;6757;52.258;12.840;2022-12-07T15:17:04;2.80;99.90
7461;DHT22;6757;52.258;12.840;2022-12-07T15:19:31;2.80;99.90
7461;DHT22;6757;52.258;12.840;2022-12-07T15:21:58;2.70;99.90
7461;DHT22;6757;52.258;12.840;2022-12-07T15:24:25;2.70;99.90
7461;DHT22;6757;52.258;12.840;2022-12-07T15:26:52;2.70;99.90
7461;DHT22;6757;52.258;12.840;2022-12-07T15:29:20;2.70;99.90
7461;DHT22;6757;52.258;12.840;2022-12-07T15:31:48;2.70;99.90
7461;DHT22;6757;52.258;12.840;2022-12-07T15:34:16;2.70;99.90
7461;DHT22;6757;52.258;12.840;2022-12-07T15:36:43;2.70;99.90
7461;DHT22;6757;52.258;12.840;2022-12-07T15:39:11;2.90;99.90
7461;DHT22;6757;52.258;12.840;2022-12-07T15:41:38;3.10;99.90
7461;DHT22;6757;52.258;12.840;2022-12-07T15:44:05;3.20;99.90
7461;DHT22;6757;52.258;12.840;2022-12-07T15:46:52;3.20;99.90
7461;DHT22;6757;52.258;12.840;2022-12-07T15:49:20;3.20;99.90
7461;DHT22;6757;52.258;12.840;2022-12-07T15:51:47;3.10;99.90
7461;DHT22;6757;52.258;12.840;2022-12-07T15:54:18;3.10;99.90
7461;DHT22;6757;52.258;12.840;2022-12-07T15:56:46;3.00;99.90
7461;DHT22;6757;52.258;12.840;2022-12-07T15:59:13;3.00;99.90
7461;DHT22;6757;52.258;12.840;2022-12-07T16:01:41;2.90;99.90
7461;DHT22;6757;52.258;12.840;2022-12-07T16:04:08;2.80;99.90
7461;DHT22;6757;52.258;12.840;2022-12-07T16:06:37;2.80;99.90
7461;DHT22;6757;52.258;12.840;2022-12-07T16:09:05;2.70;99.90
7461;DHT22;6757;52.258;12.840;2022-12-07T16:11:32;2.60;99.90
7461;DHT22;6757;52.258;12.840;2022-12-07T16:14:00;2.60;99.90
7461;DHT22;6757;52.258;12.840;2022-12-07T16:16:27;2.60;99.90
7461;DHT22;6757;52.258;12.840;2022-12-07T16:18:54;2.50;99.90
7461;DHT22;6757;52.258;12.840;2022-12-07T16:21:21;2.50;99.90
7461;DHT22;6757;52.258;12.840;2022-12-07T16:23:50;2.50;99.90
7461;DHT22;6757;52.258;12.840;2022-12-07T16:26:19;2.40;99.90
7461;DHT22;6757;52.258;12.840;2022-12-07T16:28:49;2.40;99.90
7461;DHT22;6757;52.258;12.840;2022-12-07T16:31:18;2.30;99.90
7461;DHT22;6757;52.258;12.840;2022-12-07T16:33:46;2.30;99.90
7461;DHT22;6757;52.258;12.840;2022-12-07T16:36:15;2.20;99.90
7461;DHT22;6757;52.258;12.840;2022-12-07T16:38:43;2.20;99.90
7461;DHT22;6757;52.258;12.840;2022-12-07T16:43:13;2.10;99.90